Time;durP1;ratioP1;P1;durP2;ratioP2;P2;SDS_P1;SDS_P2;PMS_P1;PMS_P2;Temp;Humidity;BMP_temperature;BMP_pressure;BME280_temperature;BME280_humidity;BME280_pressure;Samples;Min_cycle;Max_cycle;Signal;HPM_P1;HPM_P2
2021/11/08 00:01:24;;;;;;;21.40;4.65;;;;;;;6.11;100.00;101545.88;5030538;28;20050;-65
2021/11/08 00:03:52;;;;;;;16.02;4.75;;;;;;;5.98;100.00;101548.59;5031035;28;20049;-66
2021/11/08 00:06:20;;;;;;;13.65;4.43;;;;;;;5.96;100.00;101547.00;5023718;28;20045;-65
2021/11/08 00:08:48;;;;;;;11.63;3.88;;;;;;;6.31;100.00;101543.53;5030226;28;20045;-65
2021/11/08 00:11:16;;;;;;;15.27;4.45;;;;;;;6.35;100.00;101540.50;5032009;28;20107;-65
2021/11/08 00:13:45;;;;;;;15.93;4.10;;;;;;;6.22;100.00;101536.25;5028154;28;20046;-66
2021/11/08 00:16:21;;;;;;;15.10;4.90;;;;;;;6.31;100.00;101527.59;5027762;28;20380;-65
2021/11/08 00:19:03;;;;;;;16.15;4.03;;;;;;;6.42;100.00;101532.94;5025361;28;20042;-65
2021/11/08 00:21:33;;;;;;;13.70;4.32;;;;;;;6.22;100.00;101533.59;5028591;28;20042;-65
2021/11/08 00:24:01;;;;;;;12.57;4.40;;;;;;;6.22;100.00;101537.09;5029667;28;20037;-65
2021/11/08 00:26:29;;;;;;;19.20;4.85;;;;;;;6.07;100.00;101527.63;5028993;28;20441;-65
2021/11/08 00:28:57;;;;;;;16.38;3.95;;;;;;;6.16;100.00;101540.22;5025875;28;20041;-66
2021/11/08 00:31:25;;;;;;;18.65;4.32;;;;;;;5.96;100.00;101539.03;5026157;28;20059;-65
2021/11/08 00:33:54;;;;;;;16.48;4.15;;;;;;;5.95;100.00;101532.88;5027841;28;20046;-66
2021/11/08 00:36:22;;;;;;;16.60;3.78;;;;;;;5.94;100.00;101541.81;5030920;28;20054;-65
2021/11/08 00:38:51;;;;;;;11.52;3.47;;;;;;;5.85;100.00;101532.75;5021218;28;20061;-66
2021/11/08 00:41:19;;;;;;;12.23;4.20;;;;;;;5.68;100.00;101530.50;5031765;28;20376;-66
2021/11/08 00:43:47;;;;;;;13.10;3.72;;;;;;;5.80;100.00;101534.88;5034451;28;20040;-65
2021/11/08 00:46:16;;;;;;;11.68;4.40;;;;;;;5.58;100.00;101534.78;5028334;28;20045;-66
2021/11/08 00:48:45;;;;;;;11.63;3.90;;;;;;;5.53;100.00;101535.13;5028581;28;20385;-66
2021/11/08 00:51:15;;;;;;;21.50;5.80;;;;;;;5.33;100.00;101544.50;5033758;28;20053;-65
2021/11/08 00:53:44;;;;;;;15.27;3.70;;;;;;;5.58;100.00;101538.28;5030950;28;20068;-66
2021/11/08 00:56:16;;;;;;;16.45;4.05;;;;;;;5.64;100.00;101539.63;5031576;28;20046;-66
2021/11/08 00:58:45;;;;;;;18.88;4.57;;;;;;;5.63;100.00;101545.91;5030058;28;20052;-65
2021/11/08 01:01:18;;;;;;;18.70;4.68;;;;;;;5.50;100.00;101538.84;5031555;28;20056;-66
2021/11/08 01:03:46;;;;;;;10.52;4.43;;;;;;;5.34;100.00;101543.56;5031387;28;20468;-66
2021/11/08 01:06:16;;;;;;;16.67;3.63;;;;;;;5.35;100.00;101540.78;5029881;28;20053;-65
2021/11/08 01:08:45;;;;;;;12.32;3.88;;;;;;;5.17;100.00;101537.69;5026530;28;20069;-65
2021/11/08 01:11:13;;;;;;;15.57;4.38;;;;;;;5.16;100.00;101536.00;5032373;28;20041;-65
2021/11/08 01:13:42;;;;;;;16.02;4.38;;;;;;;5.34;100.00;101535.63;5032150;28;20049;-66
2021/11/08 01:16:11;;;;;;;14.52;4.00;;;;;;;5.22;100.00;101531.22;5029291;28;20459;-66
2021/11/08 01:18:39;;;;;;;15.40;3.75;;;;;;;5.31;100.00;101539.31;5027957;28;20045;-66
2021/11/08 01:21:09;;;;;;;18.27;3.97;;;;;;;5.28;100.00;101538.72;5029374;28;20068;-65
2021/11/08 01:23:38;;;;;;;13.35;4.18;;;;;;;5.25;100.00;101544.25;5028364;28;20053;-66
2021/11/08 01:26:08;;;;;;;13.38;4.30;;;;;;;5.23;100.00;101548.78;5033420;28;20045;-66
2021/11/08 01:28:39;;;;;;;9.00;3.72;;;;;;;5.22;100.00;101555.06;5026593;28;20041;-66
2021/11/08 01:31:08;;;;;;;14.02;3.75;;;;;;;5.21;100.00;101543.59;5029174;28;20048;-66
2021/11/08 01:33:37;;;;;;;14.13;4.28;;;;;;;5.25;100.00;101545.06;5030869;28;20038;-65
2021/11/08 01:36:14;;;;;;;11.13;4.00;;;;;;;5.21;100.00;101554.19;5030368;28;20037;-66
2021/11/08 01:38:45;;;;;;;13.18;4.47;;;;;;;5.15;100.00;101549.34;5027896;28;20053;-65
2021/11/08 01:41:15;;;;;;;20.20;3.67;;;;;;;5.14;100.00;101547.66;5030158;28;20065;-65
2021/11/08 01:43:44;;;;;;;15.68;3.45;;;;;;;5.24;100.00;101555.78;5031198;28;20115;-65
2021/11/08 01:46:12;;;;;;;23.73;4.47;;;;;;;5.42;100.00;101551.81;5027617;28;20385;-65
2021/11/08 01:48:40;;;;;;;11.98;3.83;;;;;;;5.63;100.00;101553.84;5023266;28;20041;-66
2021/11/08 01:51:08;;;;;;;13.77;3.88;;;;;;;5.75;100.00;101558.22;5037138;28;20052;-66
2021/11/08 01:53:38;;;;;;;21.58;4.40;;;;;;;5.67;100.00;101550.84;5030764;28;20088;-65
2021/11/08 01:56:08;;;;;;;13.35;3.75;;;;;;;5.77;100.00;101555.47;5028835;28;20328;-66
2021/11/08 01:58:37;;;;;;;16.40;4.38;;;;;;;5.92;100.00;101561.44;5025395;28;20045;-65
2021/11/08 02:01:06;;;;;;;21.33;4.05;;;;;;;6.01;100.00;101547.50;5028008;28;20373;-66
2021/11/08 02:03:34;;;;;;;13.55;4.80;;;;;;;6.11;100.00;101552.97;5027009;28;20333;-65
2021/11/08 02:06:02;;;;;;;16.45;3.58;;;;;;;6.14;100.00;101553.59;5030927;28;20098;-66
2021/11/08 02:08:33;;;;;;;14.27;3.90;;;;;;;6.27;100.00;101548.19;5026400;28;20053;-65
2021/11/08 02:11:01;;;;;;;16.45;4.38;;;;;;;6.21;100.00;101548.69;5028524;28;20064;-65
2021/11/08 02:13:30;;;;;;;19.17;3.92;;;;;;;6.22;100.00;101547.69;5029988;28;20340;-66
2021/11/08 02:15:58;;;;;;;19.27;4.68;;;;;;;6.05;100.00;101540.19;5027148;28;20048;-66
2021/11/08 02:18:26;;;;;;;15.43;3.75;;;;;;;6.06;100.00;101536.59;5027348;28;20384;-65
2021/11/08 02:20:56;;;;;;;12.23;3.65;;;;;;;5.92;100.00;101542.88;5026126;28;20065;-65
2021/11/08 02:23:25;;;;;;;15.15;4.85;;;;;;;5.68;100.00;101539.31;5030585;28;20037;-66
2021/11/08 02:25:55;;;;;;;14.55;3.80;;;;;;;5.47;100.00;101544.38;5031232;28;20045;-66
2021/11/08 02:28:23;;;;;;;15.23;3.78;;;;;;;5.60;100.00;101532.84;5026660;28;20041;-65
2021/11/08 02:30:55;;;;;;;13.88;3.97;;;;;;;5.31;100.00;101538.50;5029132;28;20164;-66
2021/11/08 02:33:25;;;;;;;16.52;4.28;;;;;;;5.29;100.00;101545.72;5028116;28;20037;-66
2021/11/08 02:35:55;;;;;;;12.88;3.40;;;;;;;5.40;100.00;101542.28;5027805;28;20056;-66
2021/11/08 02:38:24;;;;;;;16.02;3.90;;;;;;;5.39;100.00;101546.72;5028519;28;20389;-66
2021/11/08 02:40:54;;;;;;;15.38;4.80;;;;;;;5.50;100.00;101552.09;5030480;28;20357;-65
2021/11/08 02:43:24;;;;;;;16.83;3.80;;;;;;;5.45;100.00;101553.38;5027881;28;20048;-66
2021/11/08 02:45:57;;;;;;;23.85;4.70;;;;;;;5.52;100.00;101554.63;5028475;28;20041;-65
2021/11/08 02:48:25;;;;;;;20.70;5.88;;;;;;;5.37;100.00;101548.63;5021333;28;20049;-65
2021/11/08 02:50:57;;;;;;;14.18;4.93;;;;;;;5.39;100.00;101551.16;5025893;28;20045;-65
2021/11/08 02:53:26;;;;;;;17.73;5.00;;;;;;;5.44;100.00;101547.22;5027525;28;20050;-66
2021/11/08 02:55:56;;;;;;;18.23;5.07;;;;;;;5.36;100.00;101554.91;5024980;28;20057;-65
2021/11/08 02:58:27;;;;;;;15.15;5.13;;;;;;;5.37;100.00;101553.94;5026326;28;20045;-66
2021/11/08 03:00:56;;;;;;;19.95;4.40;;;;;;;5.37;100.00;101553.94;5025003;28;20046;-65
2021/11/08 03:03:33;;;;;;;22.10;4.43;;;;;;;5.47;100.00;101554.97;5023356;28;20236;-65
2021/11/08 03:06:09;;;;;;;11.43;4.55;;;;;;;5.43;100.00;101553.50;5027589;28;20041;-65
2021/11/08 03:08:37;;;;;;;14.80;4.05;;;;;;;5.50;100.00;101556.53;5022699;28;20041;-65
2021/11/08 03:11:05;;;;;;;19.88;4.20;;;;;;;5.49;100.00;101558.34;5024616;28;20056;-65
2021/11/08 03:13:39;;;;;;;15.02;4.18;;;;;;;5.61;100.00;101550.44;5024794;28;20041;-65
2021/11/08 03:16:16;;;;;;;11.20;3.97;;;;;;;5.66;100.00;101548.31;5024208;28;20052;-65
2021/11/08 03:18:45;;;;;;;10.93;4.30;;;;;;;5.67;100.00;101555.28;5027337;28;20049;-65
2021/11/08 03:21:17;;;;;;;20.67;5.03;;;;;;;5.58;100.00;101551.50;5026398;28;20046;-65
2021/11/08 03:23:48;;;;;;;18.63;5.65;;;;;;;5.60;100.00;101552.28;5034342;28;20041;-65
2021/11/08 03:26:28;;;;;;;14.85;3.65;;;;;;;5.48;100.00;101561.09;5028895;28;20369;-65
2021/11/08 03:28:56;;;;;;;11.75;4.30;;;;;;;5.52;100.00;101551.97;5024127;28;20041;-66
2021/11/08 03:31:26;;;;;;;9.93;3.90;;;;;;;5.43;100.00;101549.97;5029693;28;20045;-66
2021/11/08 03:33:54;;;;;;;13.68;4.25;;;;;;;5.60;100.00;101554.06;5028956;28;20919;-66
2021/11/08 03:36:23;;;;;;;10.18;3.78;;;;;;;5.55;100.00;101554.41;5027329;28;20322;-66
2021/11/08 03:38:51;;;;;;;11.38;4.70;;;;;;;5.41;100.00;101550.09;5036512;28;20037;-66
2021/11/08 03:41:19;;;;;;;12.20;3.78;;;;;;;5.40;100.00;101551.09;5034505;28;20046;-66
2021/11/08 03:43:48;;;;;;;12.63;3.75;;;;;;;5.39;100.00;101552.03;5033471;28;20437;-65
2021/11/08 03:46:16;;;;;;;12.10;4.15;;;;;;;5.54;100.00;101562.47;5029275;28;20528;-66
2021/11/08 03:48:44;;;;;;;16.70;4.45;;;;;;;5.60;100.00;101554.06;5030956;28;20041;-66
2021/11/08 03:51:12;;;;;;;16.77;4.93;;;;;;;5.67;100.00;101561.47;5031174;28;20049;-66
2021/11/08 03:53:41;;;;;;;20.48;4.55;;;;;;;5.77;100.00;101558.09;5033781;28;20040;-66
2021/11/08 03:56:10;;;;;;;11.18;4.30;;;;;;;5.60;100.00;101564.66;5031549;28;20041;-65
2021/11/08 03:58:37;;;;;;;16.00;4.15;;;;;;;5.74;100.00;101556.56;5029965;28;20045;-66
2021/11/08 04:01:06;;;;;;;15.18;4.47;;;;;;;5.73;100.00;101565.47;5033343;28;20045;-66
2021/11/08 04:03:35;;;;;;;17.15;4.85;;;;;;;5.76;100.00;101559.09;5033574;28;20413;-66
2021/11/08 04:06:03;;;;;;;16.88;4.40;;;;;;;5.78;100.00;101567.75;5032112;28;20388;-66
2021/11/08 04:08:31;;;;;;;16.27;4.07;;;;;;;5.70;100.00;101557.75;5034691;28;20041;-66
2021/11/08 04:11:01;;;;;;;11.30;3.85;;;;;;;5.64;100.00;101568.78;5033708;28;20049;-66
2021/11/08 04:13:34;;;;;;;16.40;4.68;;;;;;;5.61;100.00;101576.94;5030681;28;20095;-65
2021/11/08 04:16:03;;;;;;;13.30;4.63;;;;;;;5.69;100.00;101585.19;5039364;28;20049;-65
2021/11/08 04:18:32;;;;;;;16.58;3.83;;;;;;;5.78;100.00;101573.91;5209690;22;20463;-68
2021/11/08 04:21:02;;;;;;;12.80;3.83;;;;;;;5.75;100.00;101574.13;5011928;28;20136;-68
2021/11/08 04:23:30;;;;;;;17.50;4.93;;;;;;;5.71;100.00;101585.91;5011535;28;20058;-68
2021/11/08 04:26:04;;;;;;;25.67;5.13;;;;;;;5.84;100.00;101581.41;5009941;28;20092;-68
2021/11/08 04:28:34;;;;;;;23.92;4.82;;;;;;;5.78;100.00;101591.63;5010280;28;20507;-68
2021/11/08 04:31:02;;;;;;;10.88;4.35;;;;;;;5.83;100.00;101582.38;5011065;28;20468;-68
2021/11/08 04:33:34;;;;;;;16.30;5.10;;;;;;;5.76;100.00;101580.28;5010542;28;20092;-69
2021/11/08 04:36:34;;;;;;;28.52;4.03;;;;;;;5.57;100.00;101581.66;5011991;28;20483;-69
2021/11/08 04:39:15;;;;;;;20.42;5.22;;;;;;;5.46;100.00;101584.22;5011058;28;20065;-68
2021/11/08 04:41:52;;;;;;;15.50;4.13;;;;;;;5.38;100.00;101584.75;5009969;28;20095;-68
2021/11/08 04:44:44;;;;;;;19.52;4.53;;;;;;;5.38;100.00;101586.56;5012037;28;20434;-69
2021/11/08 04:50:01;;;;;;;16.73;3.72;;;;;;;5.45;100.00;101593.97;5005690;28;20127;-68
2021/11/08 04:52:40;;;;;;;17.45;4.07;;;;;;;5.35;100.00;101593.78;5012352;28;20408;-68
2021/11/08 04:55:14;;;;;;;15.07;4.15;;;;;;;5.30;100.00;101584.47;5011655;28;20049;-68
2021/11/08 04:58:16;;;;;;;13.68;4.07;;;;;;;5.31;100.00;101586.16;5008613;28;20433;-68
2021/11/08 05:22:58;;;;;;;15.50;5.85;;;;;;;5.63;100.00;101597.09;5009919;28;20041;-68
2021/11/08 05:31:03;;;;;;;19.50;5.15;;;;;;;5.89;100.00;101602.28;5004125;28;20445;-68
2021/11/08 05:33:31;;;;;;;15.00;4.43;;;;;;;5.79;100.00;101596.81;5008955;28;20053;-67
2021/11/08 05:35:59;;;;;;;14.85;4.80;;;;;;;5.72;100.00;101590.25;5010604;28;20072;-68
2021/11/08 05:38:27;;;;;;;15.00;4.57;;;;;;;5.72;100.00;101595.56;5008533;28;20450;-68
2021/11/08 05:40:55;;;;;;;19.55;5.95;;;;;;;5.60;100.00;101594.66;5010232;28;20095;-67
2021/11/08 05:43:23;;;;;;;16.52;3.90;;;;;;;5.49;100.00;101590.13;5010910;28;20049;-68
2021/11/08 05:45:51;;;;;;;13.27;4.90;;;;;;;5.50;100.00;101599.78;5008780;28;20049;-68
2021/11/08 05:48:20;;;;;;;15.30;4.28;;;;;;;5.39;100.00;101604.13;5006672;28;20042;-68
2021/11/08 05:50:48;;;;;;;13.50;4.05;;;;;;;5.35;100.00;101606.19;5008846;28;20115;-68
2021/11/08 05:53:16;;;;;;;17.83;4.55;;;;;;;5.38;100.00;101598.00;5010151;28;20342;-68
2021/11/08 05:55:47;;;;;;;17.67;5.00;;;;;;;5.42;100.00;101598.66;5010112;28;20045;-68
2021/11/08 05:58:28;;;;;;;16.20;3.83;;;;;;;5.33;100.00;101606.28;5004817;28;20220;-68
2021/11/08 06:50:57;;;;;;;28.67;6.50;;;;;;;4.56;100.00;101653.94;5007131;28;20441;-68
2021/11/08 06:53:28;;;;;;;14.95;5.35;;;;;;;4.56;100.00;101659.25;5009546;28;20053;-68
2021/11/08 06:55:58;;;;;;;14.80;5.07;;;;;;;4.50;100.00;101659.66;5006476;28;20347;-68
2021/11/08 06:58:27;;;;;;;25.00;6.07;;;;;;;4.64;100.00;101664.03;5005466;28;20038;-68
2021/11/08 07:00:57;;;;;;;15.77;6.65;;;;;;;4.61;100.00;101664.25;5009017;28;20504;-69
2021/11/08 07:03:25;;;;;;;28.90;5.32;;;;;;;4.61;100.00;101667.72;5008229;28;20053;-68
2021/11/08 07:05:53;;;;;;;18.85;5.93;;;;;;;4.72;100.00;101664.38;5008899;28;20092;-68
2021/11/08 07:08:21;;;;;;;22.38;6.38;;;;;;;4.70;100.00;101662.78;5011585;28;20045;-68
2021/11/08 07:10:51;;;;;;;21.33;6.07;;;;;;;4.76;100.00;101668.50;5012285;28;20053;-68
2021/11/08 07:13:18;;;;;;;14.18;5.00;;;;;;;4.76;100.00;101671.16;5013099;28;20042;-68
2021/11/08 07:15:47;;;;;;;24.00;6.20;;;;;;;4.79;100.00;101670.94;5010667;28;20042;-68
2021/11/08 07:18:16;;;;;;;21.27;5.78;;;;;;;4.74;100.00;101665.09;5008918;28;20591;-68
2021/11/08 07:20:44;;;;;;;25.70;6.70;;;;;;;4.60;100.00;101681.06;5012820;28;20081;-68
2021/11/08 07:23:12;;;;;;;24.73;6.53;;;;;;;4.76;100.00;101681.75;5008011;28;20261;-68
2021/11/08 07:25:40;;;;;;;29.33;8.02;;;;;;;4.93;100.00;101688.53;5012318;28;20057;-68
2021/11/08 07:28:11;;;;;;;16.63;5.47;;;;;;;4.98;100.00;101696.97;5011267;28;20376;-68
2021/11/08 07:30:42;;;;;;;19.73;6.13;;;;;;;5.08;100.00;101697.19;5009496;28;20041;-68
2021/11/08 07:33:10;;;;;;;20.58;6.15;;;;;;;5.04;100.00;101705.47;5013122;28;20100;-68
2021/11/08 07:35:38;;;;;;;22.80;5.50;;;;;;;5.08;100.00;101697.19;5010115;28;20045;-68
2021/11/08 07:38:06;;;;;;;24.85;6.55;;;;;;;5.06;100.00;101700.91;5009797;28;20445;-68
2021/11/08 07:40:35;;;;;;;20.15;7.05;;;;;;;5.26;100.00;101700.38;5012243;28;20042;-67
2021/11/08 07:43:05;;;;;;;24.67;5.68;;;;;;;5.34;100.00;101700.69;5012189;28;20453;-68
2021/11/08 07:45:34;;;;;;;28.27;6.93;;;;;;;5.43;100.00;101703.63;5011833;28;20046;-68
2021/11/08 07:48:04;;;;;;;25.65;8.15;;;;;;;5.41;100.00;101698.44;5009709;28;20049;-67
2021/11/08 07:50:40;;;;;;;20.02;6.45;;;;;;;5.46;100.00;101704.28;5009989;28;20049;-68
2021/11/08 07:53:12;;;;;;;22.40;6.47;;;;;;;5.49;100.00;101704.06;5013319;28;20046;-67
2021/11/08 07:55:40;;;;;;;22.25;6.72;;;;;;;5.49;100.00;101714.66;5010647;28;20042;-68
2021/11/08 07:58:08;;;;;;;21.50;7.30;;;;;;;5.62;100.00;101696.09;5010251;28;20038;-68
2021/11/08 08:00:39;;;;;;;21.95;6.75;;;;;;;5.69;100.00;101707.09;5010681;28;20049;-67
2021/11/08 08:03:07;;;;;;;34.40;7.40;;;;;;;5.75;100.00;101705.81;5009333;28;20119;-68
2021/11/08 08:05:35;;;;;;;18.80;7.10;;;;;;;5.77;100.00;101709.19;5011256;28;20056;-67
2021/11/08 08:08:04;;;;;;;22.30;7.05;;;;;;;5.66;100.00;101709.97;5005987;28;20049;-68
2021/11/08 08:10:32;;;;;;;21.40;7.28;;;;;;;5.73;100.00;101697.13;5010954;28;20042;-68
2021/11/08 08:13:00;;;;;;;23.48;7.22;;;;;;;5.80;100.00;101709.00;5008753;28;20232;-67
2021/11/08 08:15:28;;;;;;;24.45;7.70;;;;;;;5.90;100.00;101710.03;5009545;28;20409;-67
2021/11/08 08:17:59;;;;;;;22.00;7.93;;;;;;;5.94;100.00;101707.97;5009182;28;20049;-67
2021/11/08 08:20:28;;;;;;;21.05;7.75;;;;;;;6.13;100.00;101708.38;5008724;28;20054;-68
2021/11/08 08:22:56;;;;;;;32.90;6.78;;;;;;;6.11;100.00;101715.59;5009404;28;20053;-68
2021/11/08 08:25:24;;;;;;;24.33;6.32;;;;;;;6.03;100.00;101707.34;5009128;28;20357;-68
2021/11/08 08:27:52;;;;;;;19.60;6.28;;;;;;;6.13;100.00;101704.88;5006724;28;20087;-67
2021/11/08 08:30:20;;;;;;;23.75;6.90;;;;;;;6.07;100.00;101700.88;5009650;28;20054;-67
2021/11/08 08:32:48;;;;;;;14.75;6.18;;;;;;;6.31;100.00;101705.34;5009611;28;20095;-68
2021/11/08 08:35:17;;;;;;;21.15;6.70;;;;;;;6.23;100.00;101708.53;5010176;28;20050;-67
2021/11/08 08:37:46;;;;;;;22.10;7.45;;;;;;;6.22;100.00;101717.44;5007388;28;20416;-68
2021/11/08 08:40:15;;;;;;;24.35;6.18;;;;;;;6.34;100.00;101719.22;5011553;28;20057;-68
2021/11/08 08:42:43;;;;;;;17.85;6.65;;;;;;;6.47;100.00;101718.31;5009602;28;20116;-67
2021/11/08 08:45:11;;;;;;;24.98;6.43;;;;;;;6.92;100.00;101717.59;5010645;28;20323;-67
2021/11/08 08:47:43;;;;;;;17.95;6.72;;;;;;;7.12;100.00;101710.78;5006351;28;20452;-67
2021/11/08 08:50:11;;;;;;;16.50;6.13;;;;;;;7.12;100.00;101713.44;5011525;28;20088;-68
2021/11/08 08:52:41;;;;;;;17.98;6.18;;;;;;;7.02;100.00;101702.66;5009550;28;20046;-68
2021/11/08 08:55:09;;;;;;;15.45;6.05;;;;;;;7.07;100.00;101704.00;5011725;28;20457;-67
2021/11/08 08:57:37;;;;;;;22.00;7.05;;;;;;;7.41;100.00;101713.78;5010064;28;20037;-67
2021/11/08 09:00:10;;;;;;;14.88;5.50;;;;;;;7.54;100.00;101709.22;5008911;28;20057;-67
2021/11/08 09:02:49;;;;;;;16.92;6.30;;;;;;;7.74;100.00;101718.28;5007363;28;20045;-68
2021/11/08 09:05:18;;;;;;;21.20;5.75;;;;;;;7.81;100.00;101710.66;5010457;28;20053;-68
2021/11/08 09:07:51;;;;;;;21.98;6.80;;;;;;;8.14;100.00;101721.31;5003181;28;20042;-67
2021/11/08 09:10:19;;;;;;;20.15;5.97;;;;;;;8.64;100.00;101719.00;5011625;28;20070;-68
2021/11/08 09:12:47;;;;;;;12.70;5.25;;;;;;;8.31;100.00;101714.63;5008755;28;20038;-68
2021/11/08 09:15:15;;;;;;;19.23;5.28;;;;;;;8.12;100.00;101718.78;5009903;28;20045;-68
2021/11/08 09:17:44;;;;;;;23.75;6.65;;;;;;;7.53;100.00;101734.09;5003660;28;20045;-68
2021/11/08 09:20:14;;;;;;;15.15;6.10;;;;;;;7.79;100.00;101739.16;5003456;28;20104;-68
2021/11/08 09:22:44;;;;;;;19.45;5.90;;;;;;;7.93;100.00;101741.56;5007865;28;20442;-68
2021/11/08 09:25:14;;;;;;;18.15;6.15;;;;;;;7.89;100.00;101744.59;5008896;28;20054;-68
2021/11/08 09:27:43;;;;;;;27.33;7.70;;;;;;;8.36;100.00;101747.03;5008341;28;20125;-68
2021/11/08 09:30:13;;;;;;;27.02;6.00;;;;;;;7.87;100.00;101744.72;5010700;28;20457;-68
2021/11/08 09:32:41;;;;;;;20.45;7.40;;;;;;;8.26;100.00;101742.47;5007301;28;20045;-68
2021/11/08 09:35:10;;;;;;;18.55;5.97;;;;;;;8.04;100.00;101743.38;5009948;28;20053;-68
2021/11/08 09:37:43;;;;;;;24.52;6.55;;;;;;;8.64;100.00;101750.13;5006537;28;20092;-68
2021/11/08 09:40:14;;;;;;;16.15;6.13;;;;;;;8.63;100.00;101743.94;5007714;28;20049;-68
2021/11/08 09:42:43;;;;;;;17.83;5.80;;;;;;;9.05;100.00;101751.13;5009995;28;20311;-68
2021/11/08 09:45:12;;;;;;;14.13;6.22;;;;;;;8.79;100.00;101738.19;5009017;28;20042;-68
2021/11/08 09:47:40;;;;;;;12.40;5.78;;;;;;;9.36;100.00;101749.34;5006953;28;20810;-68
2021/11/08 09:50:10;;;;;;;18.20;6.28;;;;;;;9.98;100.00;101746.63;5008148;28;20049;-69
2021/11/08 09:52:40;;;;;;;9.82;4.70;;;;;;;9.87;100.00;101750.25;5009240;28;20054;-68
2021/11/08 09:55:11;;;;;;;17.70;5.65;;;;;;;9.25;100.00;101742.25;5010128;28;20187;-68
2021/11/08 09:58:01;;;;;;;20.17;5.57;;;;;;;9.46;100.00;101738.72;5005059;28;20026;-68
2021/11/08 10:00:43;;;;;;;12.98;5.35;;;;;;;10.09;100.00;101751.00;5008817;28;20041;-68
2021/11/08 10:03:16;;;;;;;14.02;4.90;;;;;;;10.49;100.00;101742.94;5009414;28;20046;-69
2021/11/08 10:05:47;;;;;;;15.52;4.25;;;;;;;10.52;100.00;101744.50;5008925;28;20042;-68
2021/11/08 10:08:26;;;;;;;14.23;5.65;;;;;;;10.91;100.00;101748.97;5005589;28;20112;-68
2021/11/08 10:10:56;;;;;;;16.48;5.22;;;;;;;11.32;100.00;101746.91;5008687;28;20046;-68
2021/11/08 10:13:28;;;;;;;17.67;4.95;;;;;;;11.33;100.00;101743.25;5009925;28;20041;-68
2021/11/08 10:15:58;;;;;;;17.70;5.53;;;;;;;11.19;100.00;101744.56;5006444;28;20125;-68
2021/11/08 10:18:27;;;;;;;11.25;4.05;;;;;;;11.27;100.00;101744.69;5007158;28;20046;-68
2021/11/08 10:21:05;;;;;;;16.20;4.68;;;;;;;11.62;100.00;101737.78;5007217;28;20445;-68
2021/11/08 10:23:35;;;;;;;13.60;4.28;;;;;;;11.25;100.00;101743.97;5009474;28;20452;-68
2021/11/08 10:26:07;;;;;;;10.82;4.07;;;;;;;11.30;100.00;101741.72;5009597;28;20295;-68
2021/11/08 10:28:37;;;;;;;17.55;5.20;;;;;;;10.27;100.00;101732.50;5006025;28;20075;-68
2021/11/08 10:31:09;;;;;;;20.23;5.60;;;;;;;9.80;100.00;101736.59;5006605;28;20876;-68
2021/11/08 10:33:39;;;;;;;15.45;4.47;;;;;;;9.89;100.00;101742.94;5009493;28;20078;-68
2021/11/08 10:36:12;;;;;;;18.20;5.93;;;;;;;9.90;100.00;101743.81;5006885;28;20034;-68
2021/11/08 10:38:42;;;;;;;14.07;4.45;;;;;;;9.81;100.00;101737.47;5007807;28;20061;-68
2021/11/08 10:41:12;;;;;;;16.70;4.55;;;;;;;10.62;100.00;101745.34;5006238;28;20172;-68
2021/11/08 10:43:44;;;;;;;16.27;4.50;;;;;;;10.51;100.00;101740.97;5008774;28;20117;-68
2021/11/08 10:46:14;;;;;;;16.20;5.07;;;;;;;10.32;100.00;101739.09;5006755;28;20100;-68
2021/11/08 10:48:46;;;;;;;13.48;4.68;;;;;;;10.23;100.00;101742.59;5003742;28;20084;-68
2021/11/08 10:51:17;;;;;;;13.82;4.20;;;;;;;10.12;100.00;101750.72;5005516;28;20052;-68
2021/11/08 10:53:47;;;;;;;17.98;4.70;;;;;;;10.08;100.00;101746.63;5008775;28;20053;-68
2021/11/08 10:56:20;;;;;;;15.98;4.40;;;;;;;9.69;100.00;101743.88;5006126;28;20449;-67
2021/11/08 10:58:50;;;;;;;12.77;4.80;;;;;;;9.73;100.00;101746.13;5006560;28;20133;-68
2021/11/08 11:01:30;;;;;;;16.80;5.72;;;;;;;10.04;100.00;101746.09;5008449;28;20049;-67
2021/11/08 11:04:00;;;;;;;12.77;4.28;;;;;;;10.22;100.00;101740.94;5006666;28;20038;-68
2021/11/08 11:06:37;;;;;;;9.57;4.22;;;;;;;9.93;100.00;101747.03;5009310;28;20050;-68
2021/11/08 11:09:18;;;;;;;23.90;4.30;;;;;;;9.64;100.00;101744.28;5006042;28;20038;-67
2021/11/08 11:11:47;;;;;;;13.15;3.60;;;;;;;9.48;100.00;101740.28;5009032;28;20038;-67
2021/11/08 11:14:17;;;;;;;17.40;5.03;;;;;;;9.96;100.00;101744.06;5009726;28;20445;-67
2021/11/08 11:16:49;;;;;;;14.57;4.38;;;;;;;9.83;100.00;101738.16;5008390;28;20037;-67
2021/11/08 11:19:19;;;;;;;10.30;4.00;;;;;;;9.97;100.00;101740.44;5008874;28;20042;-67
2021/11/08 11:21:57;;;;;;;14.45;4.53;;;;;;;9.98;100.00;101734.13;5007463;28;20065;-67
2021/11/08 11:24:39;;;;;;;17.45;4.35;;;;;;;9.76;100.00;101734.34;5009269;28;20045;-67
2021/11/08 11:27:09;;;;;;;11.75;4.10;;;;;;;9.80;100.00;101728.59;5008620;28;20050;-67
2021/11/08 11:29:39;;;;;;;12.63;3.78;;;;;;;9.96;100.00;101737.91;5004622;28;20053;-67
2021/11/08 11:32:18;;;;;;;16.02;3.60;;;;;;;9.85;100.00;101725.50;5006869;28;20046;-67
2021/11/08 11:34:47;;;;;;;15.40;3.80;;;;;;;10.01;100.00;101727.69;5009891;28;20080;-67
2021/11/08 11:37:16;;;;;;;14.65;4.68;;;;;;;9.93;100.00;101730.19;5007876;28;20312;-67
2021/11/08 11:39:44;;;;;;;12.32;3.88;;;;;;;9.99;100.00;101733.16;5008508;28;20042;-67
2021/11/08 11:42:13;;;;;;;10.48;3.85;;;;;;;9.94;100.00;101730.03;5007731;28;20086;-67
2021/11/08 11:44:43;;;;;;;13.02;4.22;;;;;;;9.95;100.00;101725.53;5009395;28;20103;-68
2021/11/08 11:47:16;;;;;;;18.55;4.30;;;;;;;9.82;100.00;101734.66;5007439;28;20041;-67
2021/11/08 11:49:45;;;;;;;14.20;4.80;;;;;;;9.74;100.00;101722.94;5004748;28;20038;-68
2021/11/08 11:52:13;;;;;;;11.25;3.70;;;;;;;10.09;100.00;101716.31;5007112;28;20053;-67
2021/11/08 11:54:41;;;;;;;18.02;3.70;;;;;;;10.17;100.00;101703.94;5010570;28;20336;-67
2021/11/08 11:57:09;;;;;;;14.15;4.55;;;;;;;9.95;100.00;101705.06;5009533;28;20065;-67
2021/11/08 11:59:44;;;;;;;13.35;4.82;;;;;;;9.78;100.00;101708.38;5008955;28;20406;-67
2021/11/08 12:02:12;;;;;;;11.40;3.60;;;;;;;10.11;100.00;101709.84;5007600;28;20341;-67
2021/11/08 12:04:40;;;;;;;11.00;4.05;;;;;;;10.17;100.00;101705.78;5009989;28;20444;-68
2021/11/08 12:07:10;;;;;;;24.13;5.75;;;;;;;10.15;100.00;101710.44;5011741;28;20103;-67
2021/11/08 12:09:39;;;;;;;10.45;4.10;;;;;;;10.33;100.00;101710.56;5010559;28;20084;-67
2021/11/08 12:12:08;;;;;;;18.48;4.97;;;;;;;10.54;100.00;101709.63;5010478;28;20345;-67
2021/11/08 12:14:37;;;;;;;14.98;5.10;;;;;;;10.28;100.00;101705.66;5011427;28;20243;-67
2021/11/08 12:17:08;;;;;;;13.15;4.57;;;;;;;10.19;100.00;101695.81;5007980;28;20130;-67
2021/11/08 12:19:39;;;;;;;16.52;5.22;;;;;;;10.34;100.00;101696.28;5009896;28;20096;-67
2021/11/08 12:22:16;;;;;;;16.20;4.88;;;;;;;10.26;100.00;101699.63;5009361;28;20057;-67
2021/11/08 12:24:56;;;;;;;18.40;5.95;;;;;;;10.60;100.00;101701.03;5010674;28;20042;-67
2021/11/08 12:27:34;;;;;;;14.05;4.65;;;;;;;10.79;100.00;101700.19;5010068;28;20101;-67
2021/11/08 12:30:09;;;;;;;14.60;5.07;;;;;;;11.10;100.00;101699.97;5009225;28;20042;-67
2021/11/08 12:32:45;;;;;;;14.80;4.93;;;;;;;11.52;100.00;101694.19;5011107;28;20083;-67
2021/11/08 12:35:18;;;;;;;15.75;4.55;;;;;;;11.17;100.00;101693.06;5011339;28;20049;-67
2021/11/08 12:37:47;;;;;;;11.57;5.95;;;;;;;11.62;100.00;101681.59;5007504;28;20349;-67
2021/11/08 12:40:17;;;;;;;14.02;5.00;;;;;;;11.71;100.00;101688.75;5012110;28;20120;-68
2021/11/08 12:42:50;;;;;;;14.57;4.22;;;;;;;11.09;100.00;101688.44;5009510;28;20456;-68
2021/11/08 12:45:23;;;;;;;13.85;5.07;;;;;;;11.05;100.00;101691.56;5009973;28;20066;-68
2021/11/08 12:48:07;;;;;;;11.05;4.32;;;;;;;10.63;100.00;101682.91;5006592;28;20052;-67
2021/11/08 12:50:38;;;;;;;13.82;4.30;;;;;;;10.21;100.00;101688.50;5010063;28;20066;-67
2021/11/08 12:53:21;;;;;;;15.23;5.43;;;;;;;10.16;100.00;101680.06;5011285;28;20280;-67